sensor_id;sensor_type;location;lat;lon;timestamp;pressure;altitude;pressure_sealevel;temperature;humidity
63715;BME280;49858;48.956;9.076;2023-02-12T00:01:22;100747.03;;;8.33;100.00
63715;BME280;49858;48.956;9.076;2023-02-12T00:03:50;100743.53;;;8.76;100.00
63715;BME280;49858;48.956;9.076;2023-02-12T00:06:18;100740.03;;;8.70;100.00
63715;BME280;49858;48.956;9.076;2023-02-12T00:08:51;100734.94;;;9.01;100.00
63715;BME280;49858;48.956;9.076;2023-02-12T00:11:21;100742.00;;;9.26;100.00
63715;BME280;49858;48.956;9.076;2023-02-12T00:13:51;100751.44;;;9.39;100.00
63715;BME280;49858;48.956;9.076;2023-02-12T00:16:21;100748.16;;;9.37;100.00
63715;BME280;49858;48.956;9.076;2023-02-12T00:18:50;100759.34;;;9.40;100.00
63715;BME280;49858;48.956;9.076;2023-02-12T00:21:19;100755.88;;;9.35;100.00
63715;BME280;49858;48.956;9.076;2023-02-12T00:23:47;100756.84;;;9.44;100.00
63715;BME280;49858;48.956;9.076;2023-02-12T00:26:16;100749.19;;;9.60;100.00
63715;BME280;49858;48.956;9.076;2023-02-12T00:28:47;100753.97;;;9.68;100.00
63715;BME280;49858;48.956;9.076;2023-02-12T00:31:20;100755.59;;;9.69;100.00
63715;BME280;49858;48.956;9.076;2023-02-12T00:33:49;100755.69;;;9.64;100.00
63715;BME280;49858;48.956;9.076;2023-02-12T00:36:19;100758.53;;;9.59;100.00
63715;BME280;49858;48.956;9.076;2023-02-12T00:38:47;100746.00;;;9.53;100.00
63715;BME280;49858;48.956;9.076;2023-02-12T00:41:17;100755.78;;;9.59;100.00
63715;BME280;49858;48.956;9.076;2023-02-12T00:43:45;100756.22;;;9.66;100.00
63715;BME280;49858;48.956;9.076;2023-02-12T00:46:14;100758.06;;;9.70;100.00
63715;BME280;49858;48.956;9.076;2023-02-12T00:48:46;100760.81;;;9.70;100.00
63715;BME280;49858;48.956;9.076;2023-02-12T00:51:17;100763.53;;;9.19;100.00
63715;BME280;49858;48.956;9.076;2023-02-12T00:53:45;100768.41;;;8.60;100.00
63715;BME280;49858;48.956;9.076;2023-02-12T00:56:13;100763.81;;;8.99;100.00
63715;BME280;49858;48.956;9.076;2023-02-12T00:58:40;100758.19;;;9.09;100.00
63715;BME280;49858;48.956;9.076;2023-02-12T01:01:08;100748.38;;;7.49;100.00
63715;BME280;49858;48.956;9.076;2023-02-12T01:03:36;100759.72;;;6.82;100.00
63715;BME280;49858;48.956;9.076;2023-02-12T01:06:06;100757.91;;;7.85;100.00
63715;BME280;49858;48.956;9.076;2023-02-12T01:08:34;100759.75;;;7.61;100.00
63715;BME280;49858;48.956;9.076;2023-02-12T01:11:04;100754.84;;;8.21;100.00
63715;BME280;49858;48.956;9.076;2023-02-12T01:13:34;100760.22;;;8.55;100.00
63715;BME280;49858;48.956;9.076;2023-02-12T01:16:04;100758.59;;;8.78;100.00
63715;BME280;49858;48.956;9.076;2023-02-12T01:18:34;100758.97;;;8.72;100.00
63715;BME280;49858;48.956;9.076;2023-02-12T01:21:10;100756.75;;;8.92;100.00
63715;BME280;49858;48.956;9.076;2023-02-12T01:23:39;100761.97;;;8.94;100.00
63715;BME280;49858;48.956;9.076;2023-02-12T01:26:07;100765.53;;;9.13;100.00
63715;BME280;49858;48.956;9.076;2023-02-12T01:28:36;100757.97;;;9.24;100.00
63715;BME280;49858;48.956;9.076;2023-02-12T01:31:08;100767.47;;;9.32;100.00
63715;BME280;49858;48.956;9.076;2023-02-12T01:33:37;100762.72;;;9.37;100.00
63715;BME280;49858;48.956;9.076;2023-02-12T01:36:05;100761.13;;;9.50;100.00
63715;BME280;49858;48.956;9.076;2023-02-12T01:38:35;100761.38;;;9.35;100.00
63715;BME280;49858;48.956;9.076;2023-02-12T01:41:04;100765.00;;;9.30;100.00
63715;BME280;49858;48.956;9.076;2023-02-12T01:43:33;100766.63;;;8.93;100.00
63715;BME280;49858;48.956;9.076;2023-02-12T01:46:03;100762.25;;;8.92;100.00
63715;BME280;49858;48.956;9.076;2023-02-12T01:48:35;100756.47;;;8.94;100.00
63715;BME280;49858;48.956;9.076;2023-02-12T01:51:05;100737.75;;;8.29;100.00
63715;BME280;49858;48.956;9.076;2023-02-12T01:53:37;100754.84;;;8.69;100.00
63715;BME280;49858;48.956;9.076;2023-02-12T01:56:07;100755.50;;;8.61;100.00
63715;BME280;49858;48.956;9.076;2023-02-12T01:58:38;100750.91;;;8.80;100.00
63715;BME280;49858;48.956;9.076;2023-02-12T02:01:12;100745.56;;;7.88;100.00
63715;BME280;49858;48.956;9.076;2023-02-12T02:03:44;100748.66;;;7.03;100.00
63715;BME280;49858;48.956;9.076;2023-02-12T02:06:18;100741.88;;;6.25;100.00
63715;BME280;49858;48.956;9.076;2023-02-12T02:08:48;100751.78;;;5.75;100.00
63715;BME280;49858;48.956;9.076;2023-02-12T02:11:16;100742.50;;;5.56;100.00
63715;BME280;49858;48.956;9.076;2023-02-12T02:14:04;100748.22;;;5.49;100.00
63715;BME280;49858;48.956;9.076;2023-02-12T02:16:55;100750.66;;;5.30;100.00
63715;BME280;49858;48.956;9.076;2023-02-12T02:19:40;100743.03;;;5.32;100.00
63715;BME280;49858;48.956;9.076;2023-02-12T02:22:23;100741.06;;;6.20;100.00
63715;BME280;49858;48.956;9.076;2023-02-12T02:25:52;100724.16;;;5.97;100.00
63715;BME280;49858;48.956;9.076;2023-02-12T02:28:36;100734.31;;;5.51;100.00
63715;BME280;49858;48.956;9.076;2023-02-12T02:31:14;100738.38;;;5.43;100.00
63715;BME280;49858;48.956;9.076;2023-02-12T02:33:51;100726.09;;;5.71;100.00
63715;BME280;49858;48.956;9.076;2023-02-12T02:36:26;100729.06;;;6.10;100.00
63715;BME280;49858;48.956;9.076;2023-02-12T02:39:03;100715.44;;;5.80;100.00
63715;BME280;49858;48.956;9.076;2023-02-12T02:41:36;100730.19;;;5.28;100.00
63715;BME280;49858;48.956;9.076;2023-02-12T02:44:09;100724.38;;;4.94;100.00
63715;BME280;49858;48.956;9.076;2023-02-12T02:46:45;100733.34;;;4.79;100.00
63715;BME280;49858;48.956;9.076;2023-02-12T02:49:17;100729.09;;;5.13;100.00
63715;BME280;49858;48.956;9.076;2023-02-12T02:51:48;100731.53;;;5.00;100.00
63715;BME280;49858;48.956;9.076;2023-02-12T02:54:20;100725.25;;;5.15;100.00
63715;BME280;49858;48.956;9.076;2023-02-12T02:56:56;100727.19;;;5.24;100.00
63715;BME280;49858;48.956;9.076;2023-02-12T02:59:28;100733.47;;;5.30;100.00
63715;BME280;49858;48.956;9.076;2023-02-12T03:02:06;100725.78;;;5.88;100.00
63715;BME280;49858;48.956;9.076;2023-02-12T03:04:38;100734.72;;;6.39;100.00
63715;BME280;49858;48.956;9.076;2023-02-12T03:07:10;100729.63;;;6.82;100.00
63715;BME280;49858;48.956;9.076;2023-02-12T03:09:42;100730.69;;;7.65;100.00
63715;BME280;49858;48.956;9.076;2023-02-12T03:12:15;100724.50;;;8.12;100.00
63715;BME280;49858;48.956;9.076;2023-02-12T03:14:49;100726.25;;;8.27;100.00
63715;BME280;49858;48.956;9.076;2023-02-12T03:17:22;100736.66;;;8.54;100.00
63715;BME280;49858;48.956;9.076;2023-02-12T03:19:56;100734.59;;;8.65;100.00
63715;BME280;49858;48.956;9.076;2023-02-12T03:22:28;100741.47;;;7.85;100.00
63715;BME280;49858;48.956;9.076;2023-02-12T03:25:03;100740.00;;;8.22;100.00
63715;BME280;49858;48.956;9.076;2023-02-12T03:27:37;100735.81;;;8.30;100.00
63715;BME280;49858;48.956;9.076;2023-02-12T03:30:07;100731.53;;;8.48;100.00
63715;BME280;49858;48.956;9.076;2023-02-12T03:32:43;100746.28;;;8.76;100.00
63715;BME280;49858;48.956;9.076;2023-02-12T03:35:15;100742.44;;;8.77;100.00
63715;BME280;49858;48.956;9.076;2023-02-12T03:37:52;100736.94;;;8.77;100.00
63715;BME280;49858;48.956;9.076;2023-02-12T03:40:27;100738.88;;;8.76;100.00
63715;BME280;49858;48.956;9.076;2023-02-12T03:43:02;100729.69;;;8.86;100.00
63715;BME280;49858;48.956;9.076;2023-02-12T03:45:39;100735.66;;;8.69;100.00
63715;BME280;49858;48.956;9.076;2023-02-12T03:48:17;100735.16;;;8.67;100.00
63715;BME280;49858;48.956;9.076;2023-02-12T03:50:53;100737.09;;;8.85;100.00
63715;BME280;49858;48.956;9.076;2023-02-12T03:53:24;100740.69;;;8.62;100.00
63715;BME280;49858;48.956;9.076;2023-02-12T03:55:56;100737.66;;;8.39;100.00
63715;BME280;49858;48.956;9.076;2023-02-12T03:58:28;100736.34;;;8.32;100.00
63715;BME280;49858;48.956;9.076;2023-02-12T04:00:57;100745.75;;;8.74;100.00
63715;BME280;49858;48.956;9.076;2023-02-12T04:03:28;100748.72;;;8.77;100.00
63715;BME280;49858;48.956;9.076;2023-02-12T04:05:56;100745.09;;;8.34;100.00
63715;BME280;49858;48.956;9.076;2023-02-12T04:08:26;100761.59;;;8.05;100.00
63715;BME280;49858;48.956;9.076;2023-02-12T04:11:01;100749.63;;;7.96;100.00
63715;BME280;49858;48.956;9.076;2023-02-12T04:13:41;100748.50;;;7.97;100.00
63715;BME280;49858;48.956;9.076;2023-02-12T04:16:16;100749.41;;;8.16;100.00
63715;BME280;49858;48.956;9.076;2023-02-12T04:18:48;100755.13;;;8.19;100.00
63715;BME280;49858;48.956;9.076;2023-02-12T04:21:23;100749.53;;;8.30;100.00
63715;BME280;49858;48.956;9.076;2023-02-12T04:24:04;100758.56;;;8.30;100.00
63715;BME280;49858;48.956;9.076;2023-02-12T04:26:44;100758.91;;;8.53;100.00
63715;BME280;49858;48.956;9.076;2023-02-12T04:29:23;100757.03;;;8.72;100.00
63715;BME280;49858;48.956;9.076;2023-02-12T04:31:57;100762.22;;;8.50;100.00
63715;BME280;49858;48.956;9.076;2023-02-12T04:34:34;100762.09;;;8.60;100.00
63715;BME280;49858;48.956;9.076;2023-02-12T04:37:10;100763.91;;;8.69;100.00
63715;BME280;49858;48.956;9.076;2023-02-12T04:39:40;100756.06;;;8.10;100.00
63715;BME280;49858;48.956;9.076;2023-02-12T04:42:09;100757.63;;;8.16;100.00
63715;BME280;49858;48.956;9.076;2023-02-12T04:44:38;100761.88;;;8.27;100.00
63715;BME280;49858;48.956;9.076;2023-02-12T04:47:07;100758.50;;;8.40;100.00
63715;BME280;49858;48.956;9.076;2023-02-12T04:49:39;100754.16;;;8.34;100.00
63715;BME280;49858;48.956;9.076;2023-02-12T04:52:08;100762.84;;;8.41;100.00
63715;BME280;49858;48.956;9.076;2023-02-12T04:54:36;100768.19;;;7.99;100.00
63715;BME280;49858;48.956;9.076;2023-02-12T04:57:07;100769.38;;;7.92;100.00
63715;BME280;49858;48.956;9.076;2023-02-12T04:59:35;100763.69;;;7.50;100.00
63715;BME280;49858;48.956;9.076;2023-02-12T05:02:05;100768.09;;;7.06;100.00
63715;BME280;49858;48.956;9.076;2023-02-12T05:04:35;100773.53;;;6.42;100.00
63715;BME280;49858;48.956;9.076;2023-02-12T05:07:05;100756.59;;;6.50;100.00
63715;BME280;49858;48.956;9.076;2023-02-12T05:09:35;100761.28;;;6.29;100.00
63715;BME280;49858;48.956;9.076;2023-02-12T05:12:05;100757.13;;;6.47;100.00
63715;BME280;49858;48.956;9.076;2023-02-12T05:14:33;100757.63;;;6.64;100.00
63715;BME280;49858;48.956;9.076;2023-02-12T05:17:01;100757.31;;;6.71;100.00
63715;BME280;49858;48.956;9.076;2023-02-12T05:19:31;100768.59;;;6.59;100.00
63715;BME280;49858;48.956;9.076;2023-02-12T05:22:01;100760.97;;;6.40;100.00
63715;BME280;49858;48.956;9.076;2023-02-12T05:24:30;100756.56;;;6.55;100.00
63715;BME280;49858;48.956;9.076;2023-02-12T05:26:58;100759.94;;;6.26;100.00
63715;BME280;49858;48.956;9.076;2023-02-12T05:29:26;100755.16;;;6.57;100.00
63715;BME280;49858;48.956;9.076;2023-02-12T05:31:54;100763.84;;;6.80;100.00
63715;BME280;49858;48.956;9.076;2023-02-12T05:34:22;100761.66;;;6.77;100.00
63715;BME280;49858;48.956;9.076;2023-02-12T05:36:49;100764.00;;;6.99;100.00
63715;BME280;49858;48.956;9.076;2023-02-12T05:39:17;100762.31;;;7.08;100.00
63715;BME280;49858;48.956;9.076;2023-02-12T05:41:46;100768.63;;;7.48;100.00
63715;BME280;49858;48.956;9.076;2023-02-12T05:44:14;100764.53;;;7.79;100.00
63715;BME280;49858;48.956;9.076;2023-02-12T05:46:42;100762.25;;;7.91;100.00
63715;BME280;49858;48.956;9.076;2023-02-12T05:49:10;100761.50;;;7.86;100.00
63715;BME280;49858;48.956;9.076;2023-02-12T05:51:38;100762.50;;;7.61;100.00
63715;BME280;49858;48.956;9.076;2023-02-12T05:54:06;100756.53;;;7.54;100.00
63715;BME280;49858;48.956;9.076;2023-02-12T05:56:41;100762.91;;;7.44;100.00
63715;BME280;49858;48.956;9.076;2023-02-12T05:59:15;100765.84;;;7.53;100.00
63715;BME280;49858;48.956;9.076;2023-02-12T06:01:44;100765.56;;;7.88;100.00
63715;BME280;49858;48.956;9.076;2023-02-12T06:04:14;100759.22;;;7.93;100.00
63715;BME280;49858;48.956;9.076;2023-02-12T06:06:45;100767.59;;;7.38;100.00
63715;BME280;49858;48.956;9.076;2023-02-12T06:09:18;100757.44;;;7.44;100.00
63715;BME280;49858;48.956;9.076;2023-02-12T06:11:50;100759.00;;;7.55;100.00
63715;BME280;49858;48.956;9.076;2023-02-12T06:14:19;100767.28;;;7.45;100.00
63715;BME280;49858;48.956;9.076;2023-02-12T06:16:52;100762.50;;;7.61;100.00
63715;BME280;49858;48.956;9.076;2023-02-12T06:19:25;100763.00;;;7.68;100.00
63715;BME280;49858;48.956;9.076;2023-02-12T06:21:58;100763.84;;;7.98;100.00
63715;BME280;49858;48.956;9.076;2023-02-12T06:24:26;100758.50;;;8.11;100.00
63715;BME280;49858;48.956;9.076;2023-02-12T06:26:55;100769.75;;;7.41;100.00
63715;BME280;49858;48.956;9.076;2023-02-12T06:29:28;100775.56;;;7.35;100.00
63715;BME280;49858;48.956;9.076;2023-02-12T06:31:59;100776.09;;;7.71;100.00
63715;BME280;49858;48.956;9.076;2023-02-12T06:34:27;100780.59;;;7.17;100.00
63715;BME280;49858;48.956;9.076;2023-02-12T06:36:57;100786.84;;;7.23;100.00
63715;BME280;49858;48.956;9.076;2023-02-12T06:39:26;100794.63;;;7.01;100.00
63715;BME280;49858;48.956;9.076;2023-02-12T06:41:55;100793.84;;;6.95;100.00
63715;BME280;49858;48.956;9.076;2023-02-12T06:44:23;100785.66;;;6.90;100.00
63715;BME280;49858;48.956;9.076;2023-02-12T06:46:54;100797.84;;;7.18;100.00
63715;BME280;49858;48.956;9.076;2023-02-12T06:49:24;100796.38;;;7.36;100.00
63715;BME280;49858;48.956;9.076;2023-02-12T06:51:54;100806.66;;;7.54;100.00
63715;BME280;49858;48.956;9.076;2023-02-12T06:54:22;100803.69;;;7.46;100.00
63715;BME280;49858;48.956;9.076;2023-02-12T06:56:49;100805.94;;;7.33;100.00
63715;BME280;49858;48.956;9.076;2023-02-12T06:59:17;100811.66;;;7.42;100.00
63715;BME280;49858;48.956;9.076;2023-02-12T07:01:45;100809.09;;;7.56;100.00
63715;BME280;49858;48.956;9.076;2023-02-12T07:04:15;100807.84;;;7.77;100.00
63715;BME280;49858;48.956;9.076;2023-02-12T07:06:42;100814.38;;;7.86;100.00
63715;BME280;49858;48.956;9.076;2023-02-12T07:09:10;100809.69;;;7.87;100.00
63715;BME280;49858;48.956;9.076;2023-02-12T07:11:38;100803.03;;;7.98;100.00
63715;BME280;49858;48.956;9.076;2023-02-12T07:14:06;100803.78;;;8.04;100.00
63715;BME280;49858;48.956;9.076;2023-02-12T07:16:34;100803.84;;;7.99;100.00
63715;BME280;49858;48.956;9.076;2023-02-12T07:19:04;100802.34;;;7.82;100.00
63715;BME280;49858;48.956;9.076;2023-02-12T07:21:33;100806.88;;;7.97;100.00
63715;BME280;49858;48.956;9.076;2023-02-12T07:24:01;100812.06;;;7.99;100.00
63715;BME280;49858;48.956;9.076;2023-02-12T07:26:29;100802.97;;;8.03;100.00
63715;BME280;49858;48.956;9.076;2023-02-12T07:28:56;100809.34;;;7.93;100.00
63715;BME280;49858;48.956;9.076;2023-02-12T07:31:24;100807.97;;;7.96;100.00
63715;BME280;49858;48.956;9.076;2023-02-12T07:33:53;100808.16;;;7.71;100.00
63715;BME280;49858;48.956;9.076;2023-02-12T07:36:22;100812.75;;;7.41;100.00
63715;BME280;49858;48.956;9.076;2023-02-12T07:38:52;100809.91;;;7.56;100.00
63715;BME280;49858;48.956;9.076;2023-02-12T07:41:22;100812.78;;;7.75;100.00
63715;BME280;49858;48.956;9.076;2023-02-12T07:43:53;100800.75;;;7.71;100.00
63715;BME280;49858;48.956;9.076;2023-02-12T07:46:22;100805.44;;;8.05;100.00
63715;BME280;49858;48.956;9.076;2023-02-12T07:48:51;100802.19;;;7.98;100.00
63715;BME280;49858;48.956;9.076;2023-02-12T07:51:19;100809.84;;;8.01;100.00
63715;BME280;49858;48.956;9.076;2023-02-12T07:53:48;100807.16;;;7.96;100.00
63715;BME280;49858;48.956;9.076;2023-02-12T07:56:19;100810.13;;;7.65;100.00
63715;BME280;49858;48.956;9.076;2023-02-12T07:58:49;100802.38;;;7.77;100.00
63715;BME280;49858;48.956;9.076;2023-02-12T08:01:19;100810.94;;;8.00;100.00
63715;BME280;49858;48.956;9.076;2023-02-12T08:03:49;100810.22;;;8.18;100.00
63715;BME280;49858;48.956;9.076;2023-02-12T08:06:18;100810.16;;;8.28;100.00
63715;BME280;49858;48.956;9.076;2023-02-12T08:08:46;100803.63;;;8.24;100.00
63715;BME280;49858;48.956;9.076;2023-02-12T08:11:15;100808.41;;;8.08;100.00
63715;BME280;49858;48.956;9.076;2023-02-12T08:13:46;100801.56;;;8.40;100.00
63715;BME280;49858;48.956;9.076;2023-02-12T08:16:15;100795.34;;;8.00;100.00
63715;BME280;49858;48.956;9.076;2023-02-12T08:18:43;100800.28;;;8.27;100.00
63715;BME280;49858;48.956;9.076;2023-02-12T08:21:12;100800.75;;;8.39;100.00
63715;BME280;49858;48.956;9.076;2023-02-12T08:23:41;100805.53;;;8.77;100.00
63715;BME280;49858;48.956;9.076;2023-02-12T08:26:10;100804.78;;;8.71;100.00
63715;BME280;49858;48.956;9.076;2023-02-12T08:28:42;100804.94;;;8.80;100.00
63715;BME280;49858;48.956;9.076;2023-02-12T08:31:16;100805.34;;;8.68;100.00
63715;BME280;49858;48.956;9.076;2023-02-12T08:33:46;100800.53;;;8.31;100.00
63715;BME280;49858;48.956;9.076;2023-02-12T08:36:17;100813.22;;;8.75;100.00
63715;BME280;49858;48.956;9.076;2023-02-12T08:38:46;100813.69;;;9.06;100.00
63715;BME280;49858;48.956;9.076;2023-02-12T08:41:16;100813.72;;;8.82;100.00
63715;BME280;49858;48.956;9.076;2023-02-12T08:43:48;100818.88;;;9.26;100.00
63715;BME280;49858;48.956;9.076;2023-02-12T08:46:18;100812.66;;;7.96;100.00
63715;BME280;49858;48.956;9.076;2023-02-12T08:48:47;100812.00;;;8.04;100.00
63715;BME280;49858;48.956;9.076;2023-02-12T08:51:17;100823.03;;;9.05;100.00
63715;BME280;49858;48.956;9.076;2023-02-12T08:53:50;100817.31;;;9.01;100.00
63715;BME280;49858;48.956;9.076;2023-02-12T08:56:18;100823.81;;;9.29;100.00
63715;BME280;49858;48.956;9.076;2023-02-12T08:58:47;100818.28;;;9.10;100.00
63715;BME280;49858;48.956;9.076;2023-02-12T09:01:18;100820.78;;;9.07;100.00
63715;BME280;49858;48.956;9.076;2023-02-12T09:03:47;100819.78;;;9.21;100.00
63715;BME280;49858;48.956;9.076;2023-02-12T09:06:17;100818.69;;;8.99;100.00
63715;BME280;49858;48.956;9.076;2023-02-12T09:08:45;100822.56;;;8.74;100.00
63715;BME280;49858;48.956;9.076;2023-02-12T09:11:14;100823.38;;;8.50;100.00
63715;BME280;49858;48.956;9.076;2023-02-12T09:13:43;100819.19;;;8.58;100.00
63715;BME280;49858;48.956;9.076;2023-02-12T09:16:12;100819.13;;;8.63;100.00
63715;BME280;49858;48.956;9.076;2023-02-12T09:18:45;100828.53;;;8.81;100.00
63715;BME280;49858;48.956;9.076;2023-02-12T09:21:14;100825.50;;;8.82;100.00
63715;BME280;49858;48.956;9.076;2023-02-12T09:23:42;100833.97;;;8.62;100.00
63715;BME280;49858;48.956;9.076;2023-02-12T09:26:13;100821.59;;;8.35;100.00
63715;BME280;49858;48.956;9.076;2023-02-12T09:28:42;100827.25;;;8.49;100.00
63715;BME280;49858;48.956;9.076;2023-02-12T09:31:11;100823.94;;;8.52;100.00
63715;BME280;49858;48.956;9.076;2023-02-12T09:33:40;100827.00;;;8.93;100.00
63715;BME280;49858;48.956;9.076;2023-02-12T09:36:11;100823.22;;;9.32;100.00
63715;BME280;49858;48.956;9.076;2023-02-12T09:38:40;100823.28;;;9.08;100.00
63715;BME280;49858;48.956;9.076;2023-02-12T09:41:28;100827.38;;;8.87;100.00
63715;BME280;49858;48.956;9.076;2023-02-12T09:44:03;100825.56;;;9.20;100.00
63715;BME280;49858;48.956;9.076;2023-02-12T09:46:40;100831.88;;;9.20;100.00
63715;BME280;49858;48.956;9.076;2023-02-12T09:49:18;100829.00;;;9.50;100.00
63715;BME280;49858;48.956;9.076;2023-02-12T09:51:51;100831.97;;;9.72;100.00
63715;BME280;49858;48.956;9.076;2023-02-12T09:54:22;100833.06;;;9.90;100.00
63715;BME280;49858;48.956;9.076;2023-02-12T09:56:54;100827.34;;;9.86;100.00
63715;BME280;49858;48.956;9.076;2023-02-12T09:59:28;100830.38;;;10.04;100.00
63715;BME280;49858;48.956;9.076;2023-02-12T10:01:58;100824.78;;;10.41;100.00
63715;BME280;49858;48.956;9.076;2023-02-12T10:04:27;100829.84;;;10.02;100.00
63715;BME280;49858;48.956;9.076;2023-02-12T10:07:01;100823.78;;;10.65;100.00
63715;BME280;49858;48.956;9.076;2023-02-12T10:09:39;100823.28;;;10.90;100.00
63715;BME280;49858;48.956;9.076;2023-02-12T10:12:19;100824.19;;;11.13;100.00
63715;BME280;49858;48.956;9.076;2023-02-12T10:15:01;100821.34;;;11.05;100.00
63715;BME280;49858;48.956;9.076;2023-02-12T10:17:39;100816.25;;;11.12;100.00
63715;BME280;49858;48.956;9.076;2023-02-12T10:20:31;100823.38;;;11.13;100.00
63715;BME280;49858;48.956;9.076;2023-02-12T10:23:29;100817.50;;;10.78;100.00
63715;BME280;49858;48.956;9.076;2023-02-12T10:26:10;100818.41;;;10.60;100.00
63715;BME280;49858;48.956;9.076;2023-02-12T10:28:40;100823.97;;;11.23;100.00
63715;BME280;49858;48.956;9.076;2023-02-12T10:31:13;100814.16;;;11.31;100.00
63715;BME280;49858;48.956;9.076;2023-02-12T10:33:44;100822.03;;;11.10;100.00
63715;BME280;49858;48.956;9.076;2023-02-12T10:36:21;100813.50;;;10.84;100.00
63715;BME280;49858;48.956;9.076;2023-02-12T10:38:58;100821.66;;;10.75;100.00
63715;BME280;49858;48.956;9.076;2023-02-12T10:41:29;100817.53;;;11.14;100.00
63715;BME280;49858;48.956;9.076;2023-02-12T10:43:59;100812.88;;;11.01;100.00
63715;BME280;49858;48.956;9.076;2023-02-12T10:46:31;100809.13;;;10.83;100.00
63715;BME280;49858;48.956;9.076;2023-02-12T10:48:59;100814.72;;;11.06;100.00
63715;BME280;49858;48.956;9.076;2023-02-12T10:51:39;100803.91;;;10.95;100.00
63715;BME280;49858;48.956;9.076;2023-02-12T10:54:35;100824.13;;;10.63;100.00
63715;BME280;49858;48.956;9.076;2023-02-12T10:57:16;100809.22;;;10.78;100.00
63715;BME280;49858;48.956;9.076;2023-02-12T10:59:46;100804.53;;;10.51;100.00
63715;BME280;49858;48.956;9.076;2023-02-12T11:02:21;100804.84;;;10.17;100.00
63715;BME280;49858;48.956;9.076;2023-02-12T11:04:50;100799.44;;;10.12;100.00
63715;BME280;49858;48.956;9.076;2023-02-12T11:07:20;100797.47;;;9.98;100.00
63715;BME280;49858;48.956;9.076;2023-02-12T11:09:54;100789.50;;;10.30;100.00
63715;BME280;49858;48.956;9.076;2023-02-12T11:12:33;100800.94;;;10.37;100.00
63715;BME280;49858;48.956;9.076;2023-02-12T11:15:05;100797.19;;;10.46;100.00
63715;BME280;49858;48.956;9.076;2023-02-12T11:17:38;100793.09;;;10.44;100.00
63715;BME280;49858;48.956;9.076;2023-02-12T11:20:24;100787.28;;;9.99;100.00
63715;BME280;49858;48.956;9.076;2023-02-12T11:22:56;100784.41;;;9.90;100.00
63715;BME280;49858;48.956;9.076;2023-02-12T11:25:35;100782.56;;;9.86;100.00
63715;BME280;49858;48.956;9.076;2023-02-12T11:28:13;100778.50;;;10.30;100.00
63715;BME280;49858;48.956;9.076;2023-02-12T11:30:49;100780.56;;;10.38;100.00
63715;BME280;49858;48.956;9.076;2023-02-12T11:33:25;100771.72;;;10.55;100.00
63715;BME280;49858;48.956;9.076;2023-02-12T11:35:55;100771.50;;;10.37;100.00
63715;BME280;49858;48.956;9.076;2023-02-12T11:38:27;100771.38;;;10.42;100.00
63715;BME280;49858;48.956;9.076;2023-02-12T11:40:59;100767.22;;;10.31;100.00
63715;BME280;49858;48.956;9.076;2023-02-12T11:43:33;100770.78;;;10.59;100.00
63715;BME280;49858;48.956;9.076;2023-02-12T11:46:06;100771.59;;;10.32;100.00
63715;BME280;49858;48.956;9.076;2023-02-12T11:48:37;100764.34;;;10.36;100.00
63715;BME280;49858;48.956;9.076;2023-02-12T11:51:08;100775.97;;;10.47;100.00
63715;BME280;49858;48.956;9.076;2023-02-12T11:53:48;100771.38;;;10.29;100.00
63715;BME280;49858;48.956;9.076;2023-02-12T11:56:18;100772.72;;;10.31;100.00
63715;BME280;49858;48.956;9.076;2023-02-12T11:58:47;100775.19;;;10.14;100.00
63715;BME280;49858;48.956;9.076;2023-02-12T12:01:18;100767.41;;;10.48;100.00
63715;BME280;49858;48.956;9.076;2023-02-12T12:03:57;100768.22;;;10.49;100.00
63715;BME280;49858;48.956;9.076;2023-02-12T12:06:33;100762.22;;;10.61;100.00
63715;BME280;49858;48.956;9.076;2023-02-12T12:09:06;100753.44;;;10.86;100.00
63715;BME280;49858;48.956;9.076;2023-02-12T12:11:56;100755.47;;;10.94;100.00
63715;BME280;49858;48.956;9.076;2023-02-12T12:14:29;100747.72;;;11.33;100.00
63715;BME280;49858;48.956;9.076;2023-02-12T12:17:01;100753.16;;;11.24;100.00
63715;BME280;49858;48.956;9.076;2023-02-12T12:19:55;100755.94;;;11.46;100.00
63715;BME280;49858;48.956;9.076;2023-02-12T12:22:37;100755.00;;;11.51;100.00
63715;BME280;49858;48.956;9.076;2023-02-12T12:25:16;100735.56;;;11.11;100.00
63715;BME280;49858;48.956;9.076;2023-02-12T12:28:04;100739.34;;;11.60;100.00
63715;BME280;49858;48.956;9.076;2023-02-12T12:30:55;100741.91;;;11.34;100.00
63715;BME280;49858;48.956;9.076;2023-02-12T12:33:33;100753.41;;;11.36;100.00
63715;BME280;49858;48.956;9.076;2023-02-12T12:36:18;100742.13;;;11.24;100.00
63715;BME280;49858;48.956;9.076;2023-02-12T12:38:55;100742.31;;;11.27;100.00
63715;BME280;49858;48.956;9.076;2023-02-12T12:41:34;100748.75;;;11.23;100.00
63715;BME280;49858;48.956;9.076;2023-02-12T12:44:14;100747.31;;;11.39;100.00
63715;BME280;49858;48.956;9.076;2023-02-12T12:46:54;100737.47;;;11.92;100.00
63715;BME280;49858;48.956;9.076;2023-02-12T12:49:36;100742.41;;;11.36;100.00
63715;BME280;49858;48.956;9.076;2023-02-12T12:52:25;100729.31;;;12.09;100.00
63715;BME280;49858;48.956;9.076;2023-02-12T12:55:10;100727.59;;;11.99;100.00
63715;BME280;49858;48.956;9.076;2023-02-12T12:57:52;100721.84;;;12.49;100.00
63715;BME280;49858;48.956;9.076;2023-02-12T13:00:36;100716.13;;;13.64;100.00
63715;BME280;49858;48.956;9.076;2023-02-12T13:03:26;100724.44;;;13.46;100.00
63715;BME280;49858;48.956;9.076;2023-02-12T13:06:20;100719.09;;;13.24;100.00
63715;BME280;49858;48.956;9.076;2023-02-12T13:09:10;100715.81;;;13.39;100.00
63715;BME280;49858;48.956;9.076;2023-02-12T13:11:50;100718.75;;;13.43;100.00
63715;BME280;49858;48.956;9.076;2023-02-12T13:14:35;100711.50;;;13.94;100.00
63715;BME280;49858;48.956;9.076;2023-02-12T13:17:12;100697.91;;;14.18;100.00